sensor_id;sensor_type;location;lat;lon;timestamp;pressure;altitude;pressure_sealevel;temperature;humidity
15558;BME280;7880;50.110;9.372;2022-08-11T00:04:39;17.430877451744163;;;16.937;56.98629883882409
15558;BME280;7880;50.110;9.372;2022-08-11T00:09:46;17.36532236644998;;;16.875;57.47753423050051
15558;BME280;7880;50.110;9.372;2022-08-11T00:14:56;17.208998900005827;;;16.625;57.89449523295709
15558;BME280;7880;50.110;9.372;2022-08-11T00:20:00;16.90139547623694;;;16.375;59.30676447788352
15558;BME280;7880;50.110;9.372;2022-08-11T00:24:57;16.8156701248663;;;16.187;59.88143655850612
15558;BME280;7880;50.110;9.372;2022-08-11T00:30:00;16.891310136415996;;;16.312;59.311620443027046
15558;BME280;7880;50.110;9.372;2022-08-11T00:35:12;16.80558479494066;;;16.187;59.39309276083324
15558;BME280;7880;50.110;9.372;2022-08-11T00:40:17;16.729944857605734;;;16.125;60.33253456186012
15558;BME280;7880;50.110;9.372;2022-08-11T00:45:23;16.482854851993032;;;15.937;60.73188576645482
15558;BME280;7880;50.110;9.372;2022-08-11T00:50:23;16.593793135421585;;;15.937;60.416436456733855
15558;BME280;7880;50.110;9.372;2022-08-11T00:55:47;16.58370783110731;;;15.937;60.31412337828252
15558;BME280;7880;50.110;9.372;2022-08-11T01:00:53;16.674475611845264;;;15.937;60.05098827752864
15558;BME280;7880;50.110;9.372;2022-08-11T01:05:50;16.205509759695268;;;15.5;61.94230206950404
15558;BME280;7880;50.110;9.372;2022-08-11T01:10:58;16.069358854746678;;;15.375;62.667208333570095
15558;BME280;7880;50.110;9.372;2022-08-11T01:16:11;15.897909868840362;;;15.187;62.438073983035785
15558;BME280;7880;50.110;9.372;2022-08-11T01:21:23;15.897909868840362;;;15.125;62.79618142423505
15558;BME280;7880;50.110;9.372;2022-08-11T01:33:32;15.847483760543401;;;15.187;62.80391329587025
15558;BME280;7880;50.110;9.372;2022-08-11T01:38:43;16.059273610968376;;;15.312;61.693366813679226
15558;BME280;7880;50.110;9.372;2022-08-11T01:50:33;15.776887257822091;;;15.312;62.84251610940582
15558;BME280;7880;50.110;9.372;2022-08-11T01:55:52;15.62056663336698;;;15.0;63.90138528266774
15558;BME280;7880;50.110;9.372;2022-08-11T02:00:51;15.761759443231858;;;15.062;63.68035288176896
15558;BME280;7880;50.110;9.372;2022-08-11T02:05:56;15.615524037234717;;;15.0;63.54331726902445
15558;BME280;7880;50.110;9.372;2022-08-11T02:12:02;15.595353655616055;;;15.0;63.92653625796043
15558;BME280;7880;50.110;9.372;2022-08-11T02:17:08;15.49450181737193;;;14.812;64.60353032453595
15558;BME280;7880;50.110;9.372;2022-08-11T02:28:54;15.383564929763088;;;14.687;65.21540558082081
15558;BME280;7880;50.110;9.372;2022-08-11T02:33:47;15.363394601695472;;;14.687;64.64329446520493
15558;BME280;7880;50.110;9.372;2022-08-11T02:38:58;15.373479765147204;;;14.687;64.8519998284056
15558;BME280;7880;50.110;9.372;2022-08-11T02:44:05;15.489459228515624;;;14.75;64.64057010143738
15558;BME280;7880;50.110;9.372;2022-08-11T02:50:11;15.10118076056824;;;14.562;66.30056580767543
15558;BME280;7880;50.110;9.372;2022-08-11T02:55:05;14.874265571706928;;;14.25;66.87123086701708
15558;BME280;7880;50.110;9.372;2022-08-11T03:00:04;14.838967706408585;;;14.062;67.27350945124613
15558;BME280;7880;50.110;9.372;2022-08-11T03:05:11;14.601968123018741;;;13.937;67.73066865219506
15558;BME280;7880;50.110;9.372;2022-08-11T03:10:10;14.838967706408585;;;14.0;66.73568314519099
15558;BME280;7880;50.110;9.372;2022-08-11T03:22:07;14.924691118299961;;;14.25;66.66694844893843
15558;BME280;7880;50.110;9.372;2022-08-11T03:27:07;14.844010257720948;;;14.312;66.75732849494173
15558;BME280;7880;50.110;9.372;2022-08-11T03:32:10;14.601968123018741;;;14.125;68.58191655753058
15558;BME280;7880;50.110;9.372;2022-08-11T03:37:23;14.445649600733304;;;13.812;69.01725110722181
15558;BME280;7880;50.110;9.372;2022-08-11T03:42:18;14.566670367732877;;;13.812;67.9197144766897
15558;BME280;7880;50.110;9.372;2022-08-11T03:47:33;14.551542762690223;;;13.875;67.50365088614762
15558;BME280;7880;50.110;9.372;2022-08-11T03:52:39;14.617095736792544;;;14.0;67.50823897390384
15558;BME280;7880;50.110;9.372;2022-08-11T03:57:54;14.506159963278332;;;13.937;68.27712862391975
15558;BME280;7880;50.110;9.372;2022-08-11T04:02:40;14.289331358135678;;;13.812;68.77188304995586
15558;BME280;7880;50.110;9.372;2022-08-11T04:07:44;14.309501438238659;;;13.687;69.10291672175727
15558;BME280;7880;50.110;9.372;2022-08-11T04:12:56;14.35992665886879;;;13.812;69.31926296294806
15558;BME280;7880;50.110;9.372;2022-08-11T04:18:17;14.430522016645408;;;13.812;68.45782375151735
15558;BME280;7880;50.110;9.372;2022-08-11T04:23:17;14.09267332116724;;;13.562;70.6537700959716
15558;BME280;7880;50.110;9.372;2022-08-11T04:28:19;14.223778629960725;;;13.625;69.77674078050305
15558;BME280;7880;50.110;9.372;2022-08-11T04:33:39;14.173353487910935;;;13.562;70.6653252030805
15558;BME280;7880;50.110;9.372;2022-08-11T04:38:37;14.23890617825091;;;13.625;70.17104220821962
15558;BME280;7880;50.110;9.372;2022-08-11T04:43:49;14.274203801114345;;;13.687;70.44469040453585
15558;BME280;7880;50.110;9.372;2022-08-11T05:02:35;14.304458917776355;;;13.625;71.78032429094714
15558;BME280;7880;50.110;9.372;2022-08-11T05:34:54;14.798627306387061;;;14.5;73.57384847853618
15558;BME280;7880;50.110;9.372;2022-08-11T06:00:26;15.862611589976586;;;15.625;70.699541162757
15558;BME280;7880;50.110;9.372;2022-08-11T06:05:33;16.25089344182634;;;16.0;70.5904790846752
15558;BME280;7880;50.110;9.372;2022-08-11T06:10:38;16.503025438502664;;;16.312;69.65906764690297
15558;BME280;7880;50.110;9.372;2022-08-11T06:15:43;16.684560926636912;;;16.625;69.70986502946388
15558;BME280;7880;50.110;9.372;2022-08-11T06:20:46;17.435920152650215;;;17.187;65.31990533550514
15558;BME280;7880;50.110;9.372;2022-08-11T06:25:45;17.84437989257858;;;17.75;63.6502727027932
15558;BME280;7880;50.110;9.372;2022-08-11T06:30:49;18.48480826711748;;;18.312;58.36310956404437
15558;BME280;7880;50.110;9.372;2022-08-11T06:36:01;18.908401267253794;;;18.812;56.11382865045539
15558;BME280;7880;50.110;9.372;2022-08-11T06:41:43;19.04455659627565;;;19.062;56.421576701807425
15558;BME280;7880;50.110;9.372;2022-08-11T06:46:27;19.271482616127468;;;19.312;55.78906297847754
15558;BME280;7880;50.110;9.372;2022-08-11T06:51:27;19.56396591104567;;;19.5;54.88825478297197
15558;BME280;7880;50.110;9.372;2022-08-11T07:03:47;20.133806866459782;;;20.25;52.51878771510579
15558;BME280;7880;50.110;9.372;2022-08-11T07:15:44;20.456550294958287;;;20.625;52.540357978516006
15558;BME280;7880;50.110;9.372;2022-08-11T07:34:37;21.122212381107964;;;21.187;51.32531761064286
15558;BME280;7880;50.110;9.372;2022-08-11T07:39:27;21.444959460390965;;;21.437;50.79736117616081
15558;BME280;7880;50.110;9.372;2022-08-11T07:44:29;21.550861105532384;;;21.625;50.88734014473086
15558;BME280;7880;50.110;9.372;2022-08-11T07:56:23;21.969426006736466;;;22.125;47.29770603169096
15558;BME280;7880;50.110;9.372;2022-08-11T08:21:59;23.038540638290577;;;23.187;44.47558089869593
15558;BME280;7880;50.110;9.372;2022-08-11T08:27:04;23.361294795625145;;;23.437;43.78592487007599
15558;BME280;7880;50.110;9.372;2022-08-11T08:32:07;23.628576484532097;;;23.687;45.16178473421496
15558;BME280;7880;50.110;9.372;2022-08-11T08:37:17;23.4066821946064;;;23.562;43.43658640688711
15558;BME280;7880;50.110;9.372;2022-08-11T08:42:18;23.875686697807396;;;23.875;42.70845499408194
15558;BME280;7880;50.110;9.372;2022-08-11T08:47:19;23.835342125460738;;;23.875;42.89964346313806
15558;BME280;7880;50.110;9.372;2022-08-11T08:52:23;24.087496008217567;;;24.125;41.51631462660807
15558;BME280;7880;50.110;9.372;2022-08-11T08:57:32;24.390081627952167;;;24.312;40.964606730396724
15558;BME280;7880;50.110;9.372;2022-08-11T09:02:31;24.51111616921262;;;24.5;41.00367181064987
15558;BME280;7880;50.110;9.372;2022-08-11T09:07:37;24.808660129085183;;;24.75;39.429748979507835
15558;BME280;7880;50.110;9.372;2022-08-11T09:12:51;24.94986778656021;;;24.875;38.97408938417179
15558;BME280;7880;50.110;9.372;2022-08-11T09:17:48;25.025514839781682;;;25.062;39.38621579167563
15558;BME280;7880;50.110;9.372;2022-08-11T09:29:45;25.222197484620846;;;25.125;37.83077424955059
15558;BME280;7880;50.110;9.372;2022-08-11T09:34:51;25.091075672209264;;;25.062;37.578126874846554
15558;BME280;7880;50.110;9.372;2022-08-11T09:45:19;24.95491092140437;;;24.812;37.3860749314805
15558;BME280;7880;50.110;9.372;2022-08-11T09:50:23;24.733013263583416;;;24.625;36.77683294298617
15558;BME280;7880;50.110;9.372;2022-08-11T09:55:34;25.186895438848296;;;25.125;35.6473189419248
15558;BME280;7880;50.110;9.372;2022-08-11T10:00:38;25.388621606776724;;;25.187;36.097292137645326
15558;BME280;7880;50.110;9.372;2022-08-11T10:12:40;26.104753263719612;;;25.937;36.34115028250763
15558;BME280;7880;50.110;9.372;2022-08-11T10:17:35;26.427518745936688;;;26.25;36.36695592394304
15558;BME280;7880;50.110;9.372;2022-08-11T10:36:20;26.58890193408006;;;26.5;34.06985046754785
15558;BME280;7880;50.110;9.372;2022-08-11T10:48:16;26.679680108377944;;;26.562;33.511039574095776
15558;BME280;7880;50.110;9.372;2022-08-11T11:00:15;26.614118084148505;;;26.437;32.66120590644115
15558;BME280;7880;50.110;9.372;2022-08-11T11:05:22;27.00749096730724;;;26.75;33.363374804969794
15558;BME280;7880;50.110;9.372;2022-08-11T11:10:20;26.841063762182603;;;26.687;31.90077631954922
15558;BME280;7880;50.110;9.372;2022-08-11T11:22:54;27.244524200545857;;;27.187;31.64544225081258
15558;BME280;7880;50.110;9.372;2022-08-11T11:27:39;27.289913616422563;;;27.062;32.54664643674255
15558;BME280;7880;50.110;9.372;2022-08-11T11:32:47;26.946971946954726;;;26.812;31.73323113928112
15558;BME280;7880;50.110;9.372;2022-08-11T11:37:49;27.335303055873375;;;27.125;31.527727834034554
15558;BME280;7880;50.110;9.372;2022-08-11T11:42:51;27.032707238156583;;;26.75;31.554864513362666
15558;BME280;7880;50.110;9.372;2022-08-11T11:47:57;27.219307868578472;;;27.0;30.444925362679395
15558;BME280;7880;50.110;9.372;2022-08-11T11:53:03;27.25461073537008;;;27.062;30.842797151724024
15558;BME280;7880;50.110;9.372;2022-08-11T12:04:58;27.49668792039738;;;27.25;29.658605501398256
15558;BME280;7880;50.110;9.372;2022-08-11T12:10:07;27.436168561276283;;;27.312;28.69038040633923
15558;BME280;7880;50.110;9.372;2022-08-11T12:15:09;27.51181776672602;;;27.375;29.907584328484926
15558;BME280;7880;50.110;9.372;2022-08-11T12:20:17;27.64798650155426;;;27.562;30.985211212282863
15558;BME280;7880;50.110;9.372;2022-08-11T12:32:12;27.637899921328064;;;27.75;29.61132437763621
15558;BME280;7880;50.110;9.372;2022-08-11T12:37:10;27.688332834100585;;;27.625;29.915079243834597
15558;BME280;7880;50.110;9.372;2022-08-11T13:09:34;27.990930921916153;;;27.937;30.202809532342965
15558;BME280;7880;50.110;9.372;2022-08-11T13:14:39;27.592510324716567;;;27.562;30.205128358988713
15558;BME280;7880;50.110;9.372;2022-08-11T13:19:44;28.021190788323292;;;27.937;29.64207148260646
15558;BME280;7880;50.110;9.372;2022-08-11T13:24:49;28.162403636757517;;;28.062;30.277068543402184
15558;BME280;7880;50.110;9.372;2022-08-11T13:31:10;28.656650403147797;;;28.562;29.23423626636297
15558;BME280;7880;50.110;9.372;2022-08-11T13:35:53;27.96067106598639;;;27.937;29.698801315804715
15558;BME280;7880;50.110;9.372;2022-08-11T13:40:55;28.394396668818082;;;28.25;28.80143433189395
15558;BME280;7880;50.110;9.372;2022-08-11T13:46:21;28.011104165023426;;;28.0;29.259571015762283
15558;BME280;7880;50.110;9.372;2022-08-11T13:51:38;28.202750206791098;;;28.125;29.760308663192664
15558;BME280;7880;50.110;9.372;2022-08-11T13:56:21;27.965714374580422;;;27.937;28.949957695857158
15558;BME280;7880;50.110;9.372;2022-08-11T14:01:30;28.091797184018652;;;28.0;29.806996940760126
15558;BME280;7880;50.110;9.372;2022-08-11T14:06:38;28.061537293164292;;;28.0;28.781347695862745
15558;BME280;7880;50.110;9.372;2022-08-11T14:18:41;27.748852367844666;;;27.687;29.62562108809279
15558;BME280;7880;50.110;9.372;2022-08-11T14:23:34;28.394396668818082;;;28.187;28.97910455676339
15558;BME280;7880;50.110;9.372;2022-08-11T14:28:39;27.955627757683395;;;27.875;28.900264941399186
15558;BME280;7880;50.110;9.372;2022-08-11T14:33:43;28.44483001814806;;;28.312;28.061647571295516
15558;BME280;7880;50.110;9.372;2022-08-11T14:38:49;28.37422333723516;;;28.312;27.546898455900006
15558;BME280;7880;50.110;9.372;2022-08-11T14:47:05;28.192663562536474;;;28.125;27.534929575533056
15558;BME280;7880;50.110;9.372;2022-08-11T14:51:48;28.298573385272174;;;28.25;27.182323495839082
15558;BME280;7880;50.110;9.372;2022-08-11T14:56:53;28.661693751905112;;;28.562;27.661718359916318
15558;BME280;7880;50.110;9.372;2022-08-11T15:07:13;28.586043551104375;;;28.5;27.2635664306282
15558;BME280;7880;50.110;9.372;2022-08-11T15:12:38;28.75751743359142;;;28.687;26.452814117309877
15558;BME280;7880;50.110;9.372;2022-08-11T15:17:54;28.671780450292864;;;28.687;26.238419340228226
15558;BME280;7880;50.110;9.372;2022-08-11T15:38:00;28.752474079304374;;;28.625;27.90951271103983
15558;BME280;7880;50.110;9.372;2022-08-11T15:49:37;28.485176718566798;;;28.437;27.616248649074464
15558;BME280;7880;50.110;9.372;2022-08-11T15:54:40;28.43978668190539;;;28.375;26.92299485774836
15558;BME280;7880;50.110;9.372;2022-08-11T16:06:49;28.459960028622298;;;28.375;28.355640957573293
15558;BME280;7880;50.110;9.372;2022-08-11T16:11:46;28.565870175283635;;;28.562;27.664178056177455
15558;BME280;7880;50.110;9.372;2022-08-11T16:16:49;28.470046703726986;;;28.437;28.11101379649112
15558;BME280;7880;50.110;9.372;2022-08-11T16:21:55;28.434743345953756;;;28.312;28.439550246285147
15558;BME280;7880;50.110;9.372;2022-08-11T16:27:00;28.449873354681767;;;28.375;27.944882330493986
15558;BME280;7880;50.110;9.372;2022-08-11T16:32:22;28.37422333723516;;;28.25;28.407678576212934
15558;BME280;7880;50.110;9.372;2022-08-11T16:50:51;27.96067106598639;;;27.875;28.23446634945759
15558;BME280;7880;50.110;9.372;2022-08-11T16:55:58;28.03632072545588;;;27.875;29.264565547016364
15558;BME280;7880;50.110;9.372;2022-08-11T17:01:02;27.839631747041132;;;27.812;28.359409031897435
15558;BME280;7880;50.110;9.372;2022-08-11T17:13:14;27.713549301400782;;;27.562;28.75051808043639
15558;BME280;7880;50.110;9.372;2022-08-11T17:18:43;27.557207321427995;;;27.5;28.366132582204028
15558;BME280;7880;50.110;9.372;2022-08-11T17:23:57;27.552164036408065;;;27.437;28.504815938361567
15558;BME280;7880;50.110;9.372;2022-08-11T17:28:47;27.390779069438576;;;27.312;29.245392826505416
15558;BME280;7880;50.110;9.372;2022-08-11T18:00:28;26.649420706467936;;;26.437;30.544139100975617
15558;BME280;7880;50.110;9.372;2022-08-11T18:05:37;26.40230264971033;;;26.187;32.19476382282345
